sensor_id;sensor_type;location;lat;lon;timestamp;temperature;humidity
4725;DHT22;2376;53.544;10.226;2023-03-16T00:00:41;4.70;99.90
4725;DHT22;2376;53.544;10.226;2023-03-16T00:03:08;4.70;99.90
4725;DHT22;2376;53.544;10.226;2023-03-16T00:05:35;4.70;99.90
4725;DHT22;2376;53.544;10.226;2023-03-16T00:08:02;4.60;99.90
4725;DHT22;2376;53.544;10.226;2023-03-16T00:10:31;4.60;99.90
4725;DHT22;2376;53.544;10.226;2023-03-16T00:12:58;4.60;99.90
4725;DHT22;2376;53.544;10.226;2023-03-16T00:15:27;4.60;99.90
4725;DHT22;2376;53.544;10.226;2023-03-16T00:17:54;4.60;99.90
4725;DHT22;2376;53.544;10.226;2023-03-16T00:20:21;4.60;99.90
4725;DHT22;2376;53.544;10.226;2023-03-16T00:22:48;4.60;99.90
4725;DHT22;2376;53.544;10.226;2023-03-16T00:25:16;4.60;99.90
4725;DHT22;2376;53.544;10.226;2023-03-16T00:27:44;4.60;99.90
4725;DHT22;2376;53.544;10.226;2023-03-16T00:30:11;4.60;99.90
4725;DHT22;2376;53.544;10.226;2023-03-16T00:32:38;4.60;99.90
4725;DHT22;2376;53.544;10.226;2023-03-16T00:35:06;4.60;99.90
4725;DHT22;2376;53.544;10.226;2023-03-16T00:37:33;4.60;99.90
4725;DHT22;2376;53.544;10.226;2023-03-16T00:40:01;4.60;99.90
4725;DHT22;2376;53.544;10.226;2023-03-16T00:42:32;4.60;99.90
4725;DHT22;2376;53.544;10.226;2023-03-16T00:45:00;4.60;99.90
4725;DHT22;2376;53.544;10.226;2023-03-16T00:47:29;4.60;99.90
4725;DHT22;2376;53.544;10.226;2023-03-16T00:49:56;4.60;99.90
4725;DHT22;2376;53.544;10.226;2023-03-16T00:52:23;4.60;99.90
4725;DHT22;2376;53.544;10.226;2023-03-16T00:54:52;4.60;99.90
4725;DHT22;2376;53.544;10.226;2023-03-16T00:57:20;4.60;99.90
4725;DHT22;2376;53.544;10.226;2023-03-16T00:59:49;4.60;99.90
4725;DHT22;2376;53.544;10.226;2023-03-16T01:02:18;4.60;99.90
4725;DHT22;2376;53.544;10.226;2023-03-16T01:04:48;4.50;99.90
4725;DHT22;2376;53.544;10.226;2023-03-16T01:07:15;4.50;99.90
4725;DHT22;2376;53.544;10.226;2023-03-16T01:09:42;4.60;99.90
4725;DHT22;2376;53.544;10.226;2023-03-16T01:12:11;4.50;99.90
4725;DHT22;2376;53.544;10.226;2023-03-16T01:14:38;4.40;99.90
4725;DHT22;2376;53.544;10.226;2023-03-16T01:17:06;4.40;99.90
4725;DHT22;2376;53.544;10.226;2023-03-16T01:19:35;4.40;99.90
4725;DHT22;2376;53.544;10.226;2023-03-16T01:22:03;4.40;99.90
4725;DHT22;2376;53.544;10.226;2023-03-16T01:24:31;4.40;99.90
4725;DHT22;2376;53.544;10.226;2023-03-16T01:26:59;4.40;99.90
4725;DHT22;2376;53.544;10.226;2023-03-16T01:29:26;4.40;99.90
4725;DHT22;2376;53.544;10.226;2023-03-16T01:31:53;4.40;99.90
4725;DHT22;2376;53.544;10.226;2023-03-16T01:34:20;4.40;99.90
4725;DHT22;2376;53.544;10.226;2023-03-16T01:36:50;4.30;99.90
4725;DHT22;2376;53.544;10.226;2023-03-16T01:39:17;4.30;99.90
4725;DHT22;2376;53.544;10.226;2023-03-16T01:41:45;4.30;99.90
4725;DHT22;2376;53.544;10.226;2023-03-16T01:44:12;4.20;99.90
4725;DHT22;2376;53.544;10.226;2023-03-16T01:46:40;4.20;99.90
4725;DHT22;2376;53.544;10.226;2023-03-16T01:49:10;4.20;99.90
4725;DHT22;2376;53.544;10.226;2023-03-16T01:51:43;4.20;99.90
4725;DHT22;2376;53.544;10.226;2023-03-16T01:54:20;4.10;99.90
4725;DHT22;2376;53.544;10.226;2023-03-16T01:56:51;4.10;99.90
4725;DHT22;2376;53.544;10.226;2023-03-16T01:59:22;4.00;99.90
4725;DHT22;2376;53.544;10.226;2023-03-16T02:01:50;4.00;99.90
4725;DHT22;2376;53.544;10.226;2023-03-16T02:04:28;4.00;99.90
4725;DHT22;2376;53.544;10.226;2023-03-16T02:06:59;4.00;99.90
4725;DHT22;2376;53.544;10.226;2023-03-16T02:09:28;3.90;99.90
4725;DHT22;2376;53.544;10.226;2023-03-16T02:11:55;3.90;99.90
4725;DHT22;2376;53.544;10.226;2023-03-16T02:17:33;3.90;99.90
4725;DHT22;2376;53.544;10.226;2023-03-16T02:20:12;3.80;99.90
4725;DHT22;2376;53.544;10.226;2023-03-16T02:22:43;3.80;99.90
4725;DHT22;2376;53.544;10.226;2023-03-16T02:25:15;3.80;99.90
4725;DHT22;2376;53.544;10.226;2023-03-16T02:27:50;3.80;99.90
4725;DHT22;2376;53.544;10.226;2023-03-16T02:30:20;3.70;99.90
4725;DHT22;2376;53.544;10.226;2023-03-16T02:32:48;3.70;99.90
4725;DHT22;2376;53.544;10.226;2023-03-16T02:35:17;3.70;99.90
4725;DHT22;2376;53.544;10.226;2023-03-16T02:37:45;3.60;99.90
4725;DHT22;2376;53.544;10.226;2023-03-16T02:40:19;3.60;99.90
4725;DHT22;2376;53.544;10.226;2023-03-16T02:42:48;3.60;99.90
4725;DHT22;2376;53.544;10.226;2023-03-16T02:45:20;3.60;99.90
4725;DHT22;2376;53.544;10.226;2023-03-16T02:47:48;3.60;99.90
4725;DHT22;2376;53.544;10.226;2023-03-16T02:50:18;3.60;99.90
4725;DHT22;2376;53.544;10.226;2023-03-16T02:52:45;3.60;99.90
4725;DHT22;2376;53.544;10.226;2023-03-16T02:55:13;3.50;99.90
4725;DHT22;2376;53.544;10.226;2023-03-16T02:57:40;3.60;99.90
4725;DHT22;2376;53.544;10.226;2023-03-16T03:00:08;3.60;99.90
4725;DHT22;2376;53.544;10.226;2023-03-16T03:02:43;3.50;99.90
4725;DHT22;2376;53.544;10.226;2023-03-16T03:05:10;3.50;99.90
4725;DHT22;2376;53.544;10.226;2023-03-16T03:07:38;3.50;99.90
4725;DHT22;2376;53.544;10.226;2023-03-16T03:10:05;3.40;99.90
4725;DHT22;2376;53.544;10.226;2023-03-16T03:12:32;3.30;99.90
4725;DHT22;2376;53.544;10.226;2023-03-16T03:14:59;3.30;99.90
4725;DHT22;2376;53.544;10.226;2023-03-16T03:17:26;3.40;99.90
4725;DHT22;2376;53.544;10.226;2023-03-16T03:19:56;3.40;99.90
4725;DHT22;2376;53.544;10.226;2023-03-16T03:22:23;3.40;99.90
4725;DHT22;2376;53.544;10.226;2023-03-16T03:24:50;3.40;99.90
4725;DHT22;2376;53.544;10.226;2023-03-16T03:27:17;3.40;99.90
4725;DHT22;2376;53.544;10.226;2023-03-16T03:29:44;3.40;99.90
4725;DHT22;2376;53.544;10.226;2023-03-16T03:32:11;3.40;99.90
4725;DHT22;2376;53.544;10.226;2023-03-16T03:34:38;3.40;99.90
4725;DHT22;2376;53.544;10.226;2023-03-16T03:37:08;3.40;99.90
4725;DHT22;2376;53.544;10.226;2023-03-16T03:39:35;3.40;99.90
4725;DHT22;2376;53.544;10.226;2023-03-16T03:42:04;3.40;99.90
4725;DHT22;2376;53.544;10.226;2023-03-16T03:44:31;3.40;99.90
4725;DHT22;2376;53.544;10.226;2023-03-16T03:46:59;3.30;99.90
4725;DHT22;2376;53.544;10.226;2023-03-16T03:49:25;3.30;99.90
4725;DHT22;2376;53.544;10.226;2023-03-16T03:51:52;3.30;99.90
4725;DHT22;2376;53.544;10.226;2023-03-16T03:54:21;3.30;99.90
4725;DHT22;2376;53.544;10.226;2023-03-16T03:56:48;3.20;99.90
4725;DHT22;2376;53.544;10.226;2023-03-16T03:59:15;3.20;99.90
4725;DHT22;2376;53.544;10.226;2023-03-16T04:01:41;3.20;99.90
4725;DHT22;2376;53.544;10.226;2023-03-16T04:04:08;3.10;99.90
4725;DHT22;2376;53.544;10.226;2023-03-16T04:06:35;3.10;99.90
4725;DHT22;2376;53.544;10.226;2023-03-16T04:09:02;3.10;99.90
4725;DHT22;2376;53.544;10.226;2023-03-16T04:11:31;3.10;99.90
4725;DHT22;2376;53.544;10.226;2023-03-16T04:13:58;3.10;99.90
4725;DHT22;2376;53.544;10.226;2023-03-16T04:16:25;3.10;99.90
4725;DHT22;2376;53.544;10.226;2023-03-16T04:18:52;3.10;99.90
4725;DHT22;2376;53.544;10.226;2023-03-16T04:21:20;3.20;99.90
4725;DHT22;2376;53.544;10.226;2023-03-16T04:23:47;3.20;99.90
4725;DHT22;2376;53.544;10.226;2023-03-16T04:26:14;3.20;99.90
4725;DHT22;2376;53.544;10.226;2023-03-16T04:28:43;3.20;99.90
4725;DHT22;2376;53.544;10.226;2023-03-16T04:31:10;3.10;99.90
4725;DHT22;2376;53.544;10.226;2023-03-16T04:33:38;3.10;99.90
4725;DHT22;2376;53.544;10.226;2023-03-16T04:36:07;3.10;99.90
4725;DHT22;2376;53.544;10.226;2023-03-16T04:38:35;3.10;99.90
4725;DHT22;2376;53.544;10.226;2023-03-16T04:41:03;3.10;99.90
4725;DHT22;2376;53.544;10.226;2023-03-16T04:43:31;3.10;99.90
4725;DHT22;2376;53.544;10.226;2023-03-16T04:46:00;3.10;99.90
4725;DHT22;2376;53.544;10.226;2023-03-16T04:48:27;3.10;99.90
4725;DHT22;2376;53.544;10.226;2023-03-16T04:50:54;3.10;99.90
4725;DHT22;2376;53.544;10.226;2023-03-16T04:53:21;3.10;99.90
4725;DHT22;2376;53.544;10.226;2023-03-16T04:55:48;3.20;99.90
4725;DHT22;2376;53.544;10.226;2023-03-16T04:58:14;3.20;99.90
4725;DHT22;2376;53.544;10.226;2023-03-16T05:00:41;3.10;99.90
4725;DHT22;2376;53.544;10.226;2023-03-16T05:03:09;3.10;99.90
4725;DHT22;2376;53.544;10.226;2023-03-16T05:05:36;3.10;99.90
4725;DHT22;2376;53.544;10.226;2023-03-16T05:08:04;3.10;99.90
4725;DHT22;2376;53.544;10.226;2023-03-16T05:10:31;3.00;99.90
4725;DHT22;2376;53.544;10.226;2023-03-16T05:12:58;3.00;99.90
4725;DHT22;2376;53.544;10.226;2023-03-16T05:15:24;3.10;99.90
4725;DHT22;2376;53.544;10.226;2023-03-16T05:17:52;3.10;99.90
4725;DHT22;2376;53.544;10.226;2023-03-16T05:20:22;3.10;99.90
4725;DHT22;2376;53.544;10.226;2023-03-16T05:22:49;3.20;99.90
4725;DHT22;2376;53.544;10.226;2023-03-16T05:25:17;3.20;99.90
4725;DHT22;2376;53.544;10.226;2023-03-16T05:27:45;3.20;99.90
4725;DHT22;2376;53.544;10.226;2023-03-16T05:30:13;3.30;99.90
4725;DHT22;2376;53.544;10.226;2023-03-16T05:32:41;3.30;99.90
4725;DHT22;2376;53.544;10.226;2023-03-16T05:35:08;3.20;99.90
4725;DHT22;2376;53.544;10.226;2023-03-16T05:37:39;3.30;99.90
4725;DHT22;2376;53.544;10.226;2023-03-16T05:40:07;3.20;99.90
4725;DHT22;2376;53.544;10.226;2023-03-16T05:42:38;3.20;99.90
4725;DHT22;2376;53.544;10.226;2023-03-16T05:45:06;3.30;99.90
4725;DHT22;2376;53.544;10.226;2023-03-16T05:47:33;3.30;99.90
4725;DHT22;2376;53.544;10.226;2023-03-16T05:50:01;3.20;99.90
4725;DHT22;2376;53.544;10.226;2023-03-16T05:52:27;3.20;99.90
4725;DHT22;2376;53.544;10.226;2023-03-16T05:54:55;3.30;99.90
4725;DHT22;2376;53.544;10.226;2023-03-16T05:57:22;3.30;99.90
4725;DHT22;2376;53.544;10.226;2023-03-16T05:59:49;3.30;99.90
4725;DHT22;2376;53.544;10.226;2023-03-16T06:02:17;3.40;99.90
4725;DHT22;2376;53.544;10.226;2023-03-16T06:04:44;3.40;99.90
4725;DHT22;2376;53.544;10.226;2023-03-16T06:07:11;3.40;99.90
4725;DHT22;2376;53.544;10.226;2023-03-16T06:09:38;3.50;99.90
4725;DHT22;2376;53.544;10.226;2023-03-16T06:12:06;3.50;99.90
4725;DHT22;2376;53.544;10.226;2023-03-16T06:14:34;3.60;99.90
4725;DHT22;2376;53.544;10.226;2023-03-16T06:17:01;3.60;99.90
4725;DHT22;2376;53.544;10.226;2023-03-16T06:19:28;3.60;99.90
4725;DHT22;2376;53.544;10.226;2023-03-16T06:21:54;3.70;99.90
4725;DHT22;2376;53.544;10.226;2023-03-16T06:24:21;3.70;99.90
4725;DHT22;2376;53.544;10.226;2023-03-16T06:26:48;3.80;99.90
4725;DHT22;2376;53.544;10.226;2023-03-16T06:29:16;3.80;99.90
4725;DHT22;2376;53.544;10.226;2023-03-16T06:31:43;3.90;99.90
4725;DHT22;2376;53.544;10.226;2023-03-16T06:34:09;3.90;99.90
4725;DHT22;2376;53.544;10.226;2023-03-16T06:36:36;4.00;99.90
4725;DHT22;2376;53.544;10.226;2023-03-16T06:39:04;3.90;99.90
4725;DHT22;2376;53.544;10.226;2023-03-16T06:41:31;4.00;99.90
4725;DHT22;2376;53.544;10.226;2023-03-16T06:43:59;4.00;99.90
4725;DHT22;2376;53.544;10.226;2023-03-16T06:46:27;4.10;99.90
4725;DHT22;2376;53.544;10.226;2023-03-16T06:48:54;4.20;99.90
4725;DHT22;2376;53.544;10.226;2023-03-16T06:51:21;4.20;99.90
4725;DHT22;2376;53.544;10.226;2023-03-16T06:53:48;4.30;99.90
4725;DHT22;2376;53.544;10.226;2023-03-16T06:56:14;4.30;99.90
4725;DHT22;2376;53.544;10.226;2023-03-16T06:58:41;4.40;99.90
4725;DHT22;2376;53.544;10.226;2023-03-16T07:01:09;4.40;99.90
4725;DHT22;2376;53.544;10.226;2023-03-16T07:03:38;4.40;99.90
4725;DHT22;2376;53.544;10.226;2023-03-16T07:06:05;4.50;99.90
4725;DHT22;2376;53.544;10.226;2023-03-16T07:08:33;4.50;99.90
4725;DHT22;2376;53.544;10.226;2023-03-16T07:10:59;4.50;99.90
4725;DHT22;2376;53.544;10.226;2023-03-16T07:13:27;4.60;99.90
4725;DHT22;2376;53.544;10.226;2023-03-16T07:15:53;4.50;99.90
4725;DHT22;2376;53.544;10.226;2023-03-16T07:18:20;4.60;99.90
4725;DHT22;2376;53.544;10.226;2023-03-16T07:20:48;4.70;99.90
4725;DHT22;2376;53.544;10.226;2023-03-16T07:23:16;4.80;99.90
4725;DHT22;2376;53.544;10.226;2023-03-16T07:25:42;4.80;99.90
4725;DHT22;2376;53.544;10.226;2023-03-16T07:28:10;4.90;99.90
4725;DHT22;2376;53.544;10.226;2023-03-16T07:30:37;4.90;99.90
4725;DHT22;2376;53.544;10.226;2023-03-16T07:33:04;5.00;99.90
4725;DHT22;2376;53.544;10.226;2023-03-16T07:35:31;5.00;99.90
4725;DHT22;2376;53.544;10.226;2023-03-16T07:37:59;5.00;99.90
4725;DHT22;2376;53.544;10.226;2023-03-16T07:40:25;5.10;99.90
4725;DHT22;2376;53.544;10.226;2023-03-16T07:42:52;5.20;99.90
4725;DHT22;2376;53.544;10.226;2023-03-16T07:45:19;5.20;99.90
4725;DHT22;2376;53.544;10.226;2023-03-16T07:47:46;5.30;99.90
4725;DHT22;2376;53.544;10.226;2023-03-16T07:50:13;5.30;99.90
4725;DHT22;2376;53.544;10.226;2023-03-16T07:52:41;5.30;99.90
4725;DHT22;2376;53.544;10.226;2023-03-16T07:55:09;5.30;99.90
4725;DHT22;2376;53.544;10.226;2023-03-16T07:57:36;5.40;99.90
4725;DHT22;2376;53.544;10.226;2023-03-16T08:00:04;5.50;99.90
4725;DHT22;2376;53.544;10.226;2023-03-16T08:02:32;5.50;99.90
4725;DHT22;2376;53.544;10.226;2023-03-16T08:04:59;5.60;99.90
4725;DHT22;2376;53.544;10.226;2023-03-16T08:07:25;5.60;99.90
4725;DHT22;2376;53.544;10.226;2023-03-16T08:09:52;5.70;99.90
4725;DHT22;2376;53.544;10.226;2023-03-16T08:12:20;5.80;99.90
4725;DHT22;2376;53.544;10.226;2023-03-16T08:14:47;5.80;99.90
4725;DHT22;2376;53.544;10.226;2023-03-16T08:17:14;5.80;99.90
4725;DHT22;2376;53.544;10.226;2023-03-16T08:19:41;5.90;99.90
4725;DHT22;2376;53.544;10.226;2023-03-16T08:22:08;6.00;99.90
4725;DHT22;2376;53.544;10.226;2023-03-16T08:24:35;6.10;99.90
4725;DHT22;2376;53.544;10.226;2023-03-16T08:27:02;6.20;99.90
4725;DHT22;2376;53.544;10.226;2023-03-16T08:29:30;6.30;99.90
4725;DHT22;2376;53.544;10.226;2023-03-16T08:32:01;6.30;99.90
4725;DHT22;2376;53.544;10.226;2023-03-16T08:34:28;6.40;99.90
4725;DHT22;2376;53.544;10.226;2023-03-16T08:36:56;6.50;99.90
4725;DHT22;2376;53.544;10.226;2023-03-16T08:39:23;6.60;99.90
4725;DHT22;2376;53.544;10.226;2023-03-16T08:41:50;6.70;99.90
4725;DHT22;2376;53.544;10.226;2023-03-16T08:44:18;6.80;99.90
4725;DHT22;2376;53.544;10.226;2023-03-16T08:46:47;6.90;99.90
4725;DHT22;2376;53.544;10.226;2023-03-16T08:49:14;6.90;99.90
4725;DHT22;2376;53.544;10.226;2023-03-16T08:51:41;7.00;99.90
4725;DHT22;2376;53.544;10.226;2023-03-16T08:54:08;7.10;99.90
4725;DHT22;2376;53.544;10.226;2023-03-16T08:56:35;7.20;99.90
4725;DHT22;2376;53.544;10.226;2023-03-16T08:59:02;7.30;99.90
4725;DHT22;2376;53.544;10.226;2023-03-16T09:01:30;7.30;99.90
4725;DHT22;2376;53.544;10.226;2023-03-16T09:03:58;7.40;99.90
4725;DHT22;2376;53.544;10.226;2023-03-16T09:06:25;7.50;99.90
4725;DHT22;2376;53.544;10.226;2023-03-16T09:08:53;7.40;99.90
4725;DHT22;2376;53.544;10.226;2023-03-16T09:11:20;7.60;99.70
4725;DHT22;2376;53.544;10.226;2023-03-16T09:13:47;7.70;99.60
4725;DHT22;2376;53.544;10.226;2023-03-16T09:16:15;7.80;99.40
4725;DHT22;2376;53.544;10.226;2023-03-16T09:18:42;7.90;99.00
4725;DHT22;2376;53.544;10.226;2023-03-16T09:21:11;8.00;98.50
4725;DHT22;2376;53.544;10.226;2023-03-16T09:23:39;7.90;98.00
4725;DHT22;2376;53.544;10.226;2023-03-16T09:26:07;7.90;96.40
4725;DHT22;2376;53.544;10.226;2023-03-16T09:28:35;8.20;96.20
4725;DHT22;2376;53.544;10.226;2023-03-16T09:31:03;8.40;96.10
4725;DHT22;2376;53.544;10.226;2023-03-16T09:33:30;8.50;95.00
4725;DHT22;2376;53.544;10.226;2023-03-16T09:35:58;8.50;94.70
4725;DHT22;2376;53.544;10.226;2023-03-16T09:38:28;8.60;93.90
4725;DHT22;2376;53.544;10.226;2023-03-16T09:40:58;8.60;92.70
4725;DHT22;2376;53.544;10.226;2023-03-16T09:43:42;8.70;91.50
4725;DHT22;2376;53.544;10.226;2023-03-16T09:46:16;8.80;89.60
4725;DHT22;2376;53.544;10.226;2023-03-16T09:48:47;9.00;89.10
4725;DHT22;2376;53.544;10.226;2023-03-16T09:51:19;9.00;85.20
4725;DHT22;2376;53.544;10.226;2023-03-16T09:53:53;9.10;84.40
4725;DHT22;2376;53.544;10.226;2023-03-16T09:56:27;9.20;83.90
4725;DHT22;2376;53.544;10.226;2023-03-16T09:58:55;9.20;80.70
4725;DHT22;2376;53.544;10.226;2023-03-16T10:01:35;9.30;81.70
4725;DHT22;2376;53.544;10.226;2023-03-16T10:04:11;9.40;81.80
4725;DHT22;2376;53.544;10.226;2023-03-16T10:06:46;9.40;81.40
4725;DHT22;2376;53.544;10.226;2023-03-16T10:09:26;9.60;80.80
4725;DHT22;2376;53.544;10.226;2023-03-16T10:11:57;9.70;80.90
4725;DHT22;2376;53.544;10.226;2023-03-16T10:14:32;9.80;79.80
4725;DHT22;2376;53.544;10.226;2023-03-16T10:17:06;9.90;80.00
4725;DHT22;2376;53.544;10.226;2023-03-16T10:19:39;10.00;76.80
4725;DHT22;2376;53.544;10.226;2023-03-16T10:22:15;9.90;74.90
4725;DHT22;2376;53.544;10.226;2023-03-16T10:24:55;9.90;74.20
4725;DHT22;2376;53.544;10.226;2023-03-16T10:27:27;10.00;73.10
4725;DHT22;2376;53.544;10.226;2023-03-16T10:29:55;10.00;72.30
4725;DHT22;2376;53.544;10.226;2023-03-16T10:32:22;10.20;73.60
4725;DHT22;2376;53.544;10.226;2023-03-16T10:34:56;10.10;71.90
4725;DHT22;2376;53.544;10.226;2023-03-16T10:37:24;10.00;69.70
4725;DHT22;2376;53.544;10.226;2023-03-16T10:39:54;10.20;72.00
4725;DHT22;2376;53.544;10.226;2023-03-16T10:42:23;10.20;70.40
4725;DHT22;2376;53.544;10.226;2023-03-16T10:44:56;10.30;68.70
4725;DHT22;2376;53.544;10.226;2023-03-16T10:47:27;10.40;68.90
4725;DHT22;2376;53.544;10.226;2023-03-16T10:49:54;10.50;68.20
4725;DHT22;2376;53.544;10.226;2023-03-16T10:52:26;10.40;66.50
4725;DHT22;2376;53.544;10.226;2023-03-16T10:54:58;10.40;65.70
4725;DHT22;2376;53.544;10.226;2023-03-16T10:57:29;10.50;64.40
4725;DHT22;2376;53.544;10.226;2023-03-16T11:00:03;10.70;64.00
4725;DHT22;2376;53.544;10.226;2023-03-16T11:02:41;10.60;61.40
4725;DHT22;2376;53.544;10.226;2023-03-16T11:05:13;10.60;60.40
4725;DHT22;2376;53.544;10.226;2023-03-16T11:07:47;10.60;58.40
4725;DHT22;2376;53.544;10.226;2023-03-16T11:10:27;10.90;59.30
4725;DHT22;2376;53.544;10.226;2023-03-16T11:13:00;10.80;53.20
4725;DHT22;2376;53.544;10.226;2023-03-16T11:15:35;10.90;48.90
4725;DHT22;2376;53.544;10.226;2023-03-16T11:18:02;10.90;49.40
4725;DHT22;2376;53.544;10.226;2023-03-16T11:20:31;10.80;47.50
4725;DHT22;2376;53.544;10.226;2023-03-16T11:22:59;10.90;46.70
4725;DHT22;2376;53.544;10.226;2023-03-16T11:25:32;10.90;46.40
4725;DHT22;2376;53.544;10.226;2023-03-16T11:28:10;10.70;44.70
4725;DHT22;2376;53.544;10.226;2023-03-16T11:30:43;10.90;47.10
4725;DHT22;2376;53.544;10.226;2023-03-16T11:33:13;11.10;47.00
4725;DHT22;2376;53.544;10.226;2023-03-16T11:35:46;11.20;45.70
4725;DHT22;2376;53.544;10.226;2023-03-16T11:38:17;11.30;44.40
4725;DHT22;2376;53.544;10.226;2023-03-16T11:40:53;11.50;45.40
4725;DHT22;2376;53.544;10.226;2023-03-16T11:43:43;11.50;44.40
4725;DHT22;2376;53.544;10.226;2023-03-16T11:46:14;11.40;44.00
4725;DHT22;2376;53.544;10.226;2023-03-16T11:48:48;11.50;42.90
4725;DHT22;2376;53.544;10.226;2023-03-16T11:51:30;11.60;44.20
4725;DHT22;2376;53.544;10.226;2023-03-16T11:54:05;11.60;43.00
4725;DHT22;2376;53.544;10.226;2023-03-16T11:56:42;11.60;42.70
4725;DHT22;2376;53.544;10.226;2023-03-16T11:59:25;11.60;41.10
4725;DHT22;2376;53.544;10.226;2023-03-16T12:02:12;11.60;41.40
4725;DHT22;2376;53.544;10.226;2023-03-16T12:04:57;11.70;39.70
4725;DHT22;2376;53.544;10.226;2023-03-16T12:07:42;11.60;37.60
4725;DHT22;2376;53.544;10.226;2023-03-16T12:10:22;11.70;38.90
4725;DHT22;2376;53.544;10.226;2023-03-16T12:12:59;11.90;38.90
4725;DHT22;2376;53.544;10.226;2023-03-16T12:15:35;12.00;39.20
4725;DHT22;2376;53.544;10.226;2023-03-16T12:18:13;11.80;39.20
4725;DHT22;2376;53.544;10.226;2023-03-16T12:20:46;11.70;37.80
4725;DHT22;2376;53.544;10.226;2023-03-16T12:23:19;11.70;39.80
4725;DHT22;2376;53.544;10.226;2023-03-16T12:25:48;11.80;36.10
4725;DHT22;2376;53.544;10.226;2023-03-16T12:28:21;11.80;35.70
4725;DHT22;2376;53.544;10.226;2023-03-16T12:30:59;12.00;36.40
4725;DHT22;2376;53.544;10.226;2023-03-16T12:33:42;11.90;37.60
4725;DHT22;2376;53.544;10.226;2023-03-16T12:36:37;12.10;36.70
4725;DHT22;2376;53.544;10.226;2023-03-16T12:39:12;12.10;36.60
4725;DHT22;2376;53.544;10.226;2023-03-16T12:41:48;12.30;36.20
4725;DHT22;2376;53.544;10.226;2023-03-16T12:44:27;12.10;35.60
4725;DHT22;2376;53.544;10.226;2023-03-16T12:47:00;11.90;35.10
4725;DHT22;2376;53.544;10.226;2023-03-16T12:49:31;12.10;36.10
4725;DHT22;2376;53.544;10.226;2023-03-16T12:52:00;12.00;35.40
4725;DHT22;2376;53.544;10.226;2023-03-16T12:54:28;12.10;36.00
4725;DHT22;2376;53.544;10.226;2023-03-16T12:57:00;12.20;35.60
4725;DHT22;2376;53.544;10.226;2023-03-16T12:59:37;12.20;36.30
4725;DHT22;2376;53.544;10.226;2023-03-16T13:02:13;12.20;35.20
4725;DHT22;2376;53.544;10.226;2023-03-16T13:04:42;12.30;35.90
4725;DHT22;2376;53.544;10.226;2023-03-16T13:07:16;12.40;36.00
4725;DHT22;2376;53.544;10.226;2023-03-16T13:09:46;12.20;35.40
4725;DHT22;2376;53.544;10.226;2023-03-16T13:12:25;12.30;37.00
4725;DHT22;2376;53.544;10.226;2023-03-16T13:14:54;12.30;36.00
4725;DHT22;2376;53.544;10.226;2023-03-16T13:17:27;12.30;35.70
4725;DHT22;2376;53.544;10.226;2023-03-16T13:20:22;12.30;35.60
4725;DHT22;2376;53.544;10.226;2023-03-16T13:23:05;12.40;35.60
4725;DHT22;2376;53.544;10.226;2023-03-16T13:25:40;12.30;35.10
4725;DHT22;2376;53.544;10.226;2023-03-16T13:28:12;12.30;35.80
4725;DHT22;2376;53.544;10.226;2023-03-16T13:30:46;12.50;34.60
4725;DHT22;2376;53.544;10.226;2023-03-16T13:33:19;12.40;33.10
4725;DHT22;2376;53.544;10.226;2023-03-16T13:35:48;12.40;34.40
4725;DHT22;2376;53.544;10.226;2023-03-16T13:38:20;12.20;33.40
4725;DHT22;2376;53.544;10.226;2023-03-16T13:40:53;12.20;33.80
4725;DHT22;2376;53.544;10.226;2023-03-16T13:43:23;12.50;34.00
4725;DHT22;2376;53.544;10.226;2023-03-16T13:45:51;12.50;34.10
4725;DHT22;2376;53.544;10.226;2023-03-16T13:48:22;12.30;31.60
4725;DHT22;2376;53.544;10.226;2023-03-16T13:50:52;12.30;33.30
4725;DHT22;2376;53.544;10.226;2023-03-16T13:53:22;12.30;33.90
4725;DHT22;2376;53.544;10.226;2023-03-16T13:55:51;12.20;34.00
4725;DHT22;2376;53.544;10.226;2023-03-16T13:58:22;12.10;32.30
4725;DHT22;2376;53.544;10.226;2023-03-16T14:00:58;12.10;32.50
4725;DHT22;2376;53.544;10.226;2023-03-16T14:03:33;12.10;33.80
4725;DHT22;2376;53.544;10.226;2023-03-16T14:06:30;12.20;33.30
4725;DHT22;2376;53.544;10.226;2023-03-16T14:09:02;12.20;33.70
4725;DHT22;2376;53.544;10.226;2023-03-16T14:14:24;12.20;34.20
4725;DHT22;2376;53.544;10.226;2023-03-16T14:17:12;11.90;33.20
4725;DHT22;2376;53.544;10.226;2023-03-16T14:19:44;12.00;34.50
4725;DHT22;2376;53.544;10.226;2023-03-16T14:22:22;12.10;33.30
4725;DHT22;2376;53.544;10.226;2023-03-16T14:24:54;11.90;33.90
4725;DHT22;2376;53.544;10.226;2023-03-16T14:27:31;12.00;34.40
4725;DHT22;2376;53.544;10.226;2023-03-16T14:30:16;11.90;33.60
4725;DHT22;2376;53.544;10.226;2023-03-16T14:32:55;11.90;34.70
4725;DHT22;2376;53.544;10.226;2023-03-16T14:35:26;11.90;34.50
4725;DHT22;2376;53.544;10.226;2023-03-16T14:37:54;11.80;34.30
4725;DHT22;2376;53.544;10.226;2023-03-16T14:40:27;11.80;33.90
4725;DHT22;2376;53.544;10.226;2023-03-16T14:42:57;11.80;34.20
4725;DHT22;2376;53.544;10.226;2023-03-16T14:45:28;11.80;33.00
4725;DHT22;2376;53.544;10.226;2023-03-16T14:48:02;11.70;32.90
4725;DHT22;2376;53.544;10.226;2023-03-16T14:50:30;11.70;34.10
4725;DHT22;2376;53.544;10.226;2023-03-16T14:52:58;11.60;34.50
4725;DHT22;2376;53.544;10.226;2023-03-16T14:55:25;11.70;34.40
4725;DHT22;2376;53.544;10.226;2023-03-16T14:57:52;11.80;34.60
4725;DHT22;2376;53.544;10.226;2023-03-16T15:00:20;11.70;34.50
4725;DHT22;2376;53.544;10.226;2023-03-16T15:02:55;11.60;35.20
4725;DHT22;2376;53.544;10.226;2023-03-16T15:05:30;11.50;34.90
4725;DHT22;2376;53.544;10.226;2023-03-16T15:07:58;11.30;35.30
4725;DHT22;2376;53.544;10.226;2023-03-16T15:10:27;11.30;36.40
4725;DHT22;2376;53.544;10.226;2023-03-16T15:12:55;11.30;35.90
4725;DHT22;2376;53.544;10.226;2023-03-16T15:15:29;11.10;35.60
4725;DHT22;2376;53.544;10.226;2023-03-16T15:17:57;11.10;35.40
4725;DHT22;2376;53.544;10.226;2023-03-16T15:20:29;11.30;36.70
4725;DHT22;2376;53.544;10.226;2023-03-16T15:22:59;11.30;36.40
4725;DHT22;2376;53.544;10.226;2023-03-16T15:25:32;11.50;37.20
4725;DHT22;2376;53.544;10.226;2023-03-16T15:28:02;11.50;36.60
4725;DHT22;2376;53.544;10.226;2023-03-16T15:30:30;11.50;36.50
4725;DHT22;2376;53.544;10.226;2023-03-16T15:32:57;11.50;37.00
4725;DHT22;2376;53.544;10.226;2023-03-16T15:35:23;11.60;37.20
4725;DHT22;2376;53.544;10.226;2023-03-16T15:37:52;11.50;37.10
4725;DHT22;2376;53.544;10.226;2023-03-16T15:40:21;11.50;37.80
4725;DHT22;2376;53.544;10.226;2023-03-16T15:42:48;11.50;37.90
4725;DHT22;2376;53.544;10.226;2023-03-16T15:45:17;11.50;38.50
4725;DHT22;2376;53.544;10.226;2023-03-16T15:47:46;11.50;38.40
4725;DHT22;2376;53.544;10.226;2023-03-16T15:50:15;11.50;38.50
4725;DHT22;2376;53.544;10.226;2023-03-16T15:52:45;11.30;37.90
4725;DHT22;2376;53.544;10.226;2023-03-16T15:55:18;11.20;38.20
4725;DHT22;2376;53.544;10.226;2023-03-16T15:57:47;11.20;38.00
4725;DHT22;2376;53.544;10.226;2023-03-16T16:00:26;11.30;38.50
4725;DHT22;2376;53.544;10.226;2023-03-16T16:02:55;11.30;38.40
4725;DHT22;2376;53.544;10.226;2023-03-16T16:05:22;11.20;38.30
4725;DHT22;2376;53.544;10.226;2023-03-16T16:07:49;10.90;37.60
4725;DHT22;2376;53.544;10.226;2023-03-16T16:10:17;10.80;36.70
4725;DHT22;2376;53.544;10.226;2023-03-16T16:12:46;11.00;37.60
4725;DHT22;2376;53.544;10.226;2023-03-16T16:15:21;11.00;37.60
4725;DHT22;2376;53.544;10.226;2023-03-16T16:17:50;11.00;37.40
4725;DHT22;2376;53.544;10.226;2023-03-16T16:20:21;11.00;37.60